createdAt,value
2018-03-07T00:03:54.114Z,91.87
2018-03-07T00:07:57.485Z,93.90
2018-03-07T00:12:00.843Z,91.30
2018-03-07T00:16:04.232Z,89.40
2018-03-07T00:20:07.589Z,85.70
2018-03-07T00:24:10.956Z,87.67
2018-03-07T00:28:14.337Z,84.83
2018-03-07T00:32:17.909Z,87.30
2018-03-07T00:36:21.281Z,86.20
2018-03-07T00:40:24.653Z,83.60
2018-03-07T00:44:27.995Z,84.13
2018-03-07T00:48:32.170Z,84.87
2018-03-07T00:52:35.514Z,81.70
2018-03-07T00:56:39.002Z,84.70
2018-03-07T01:00:42.369Z,86.47
2018-03-07T01:04:45.912Z,81.27
2018-03-07T01:08:49.360Z,84.70
2018-03-07T01:12:53.522Z,83.97
2018-03-07T01:16:56.893Z,82.50
2018-03-07T01:21:01.007Z,81.90
2018-03-07T01:25:04.370Z,82.80
2018-03-07T01:29:07.860Z,83.57
2018-03-07T01:33:11.252Z,88.67
2018-03-07T01:37:14.621Z,89.27
2018-03-07T01:41:18.069Z,84.83
2018-03-07T01:45:21.599Z,83.17
2018-03-07T01:49:24.962Z,83.10
2018-03-07T01:53:29.196Z,86.77
2018-03-07T01:57:33.335Z,84.27
2018-03-07T02:01:36.708Z,83.63
2018-03-07T02:05:40.850Z,83.20
2018-03-07T02:09:44.994Z,85.30
2018-03-07T02:13:49.111Z,83.00
2018-03-07T02:17:52.480Z,87.60
2018-03-07T02:21:55.842Z,87.67
2018-03-07T02:25:59.210Z,88.93
2018-03-07T02:30:03.352Z,88.83
2018-03-07T02:34:06.735Z,89.37
2018-03-07T02:38:10.867Z,89.10
2018-03-07T02:42:15.078Z,91.50
2018-03-07T02:46:18.466Z,90.43
2018-03-07T02:50:21.843Z,92.17
2018-03-07T02:54:25.220Z,94.47
2018-03-07T02:58:28.694Z,92.17
2018-03-07T03:02:32.814Z,87.77
2018-03-07T03:06:36.455Z,95.50
2018-03-07T03:10:39.837Z,96.60
2018-03-07T03:14:43.306Z,97.50
2018-03-07T03:18:46.686Z,100.90
2018-03-07T03:22:50.056Z,100.10
2018-03-07T03:26:53.413Z,108.10
2018-03-07T03:30:56.775Z,104.93
2018-03-07T03:35:00.941Z,106.73
2018-03-07T03:39:04.295Z,106.90
2018-03-07T03:43:07.654Z,105.40
2018-03-07T03:47:11.029Z,110.07
2018-03-07T03:51:15.158Z,113.13
2018-03-07T03:55:19.283Z,117.53
2018-03-07T03:59:23.430Z,111.90
2018-03-07T04:03:26.801Z,120.40
2018-03-07T04:07:30.928Z,121.63
2018-03-07T04:11:35.037Z,117.43
2018-03-07T04:15:39.174Z,118.80
2018-03-07T04:19:43.366Z,124.00
2018-03-07T04:23:46.735Z,121.53
2018-03-07T04:27:50.118Z,123.47
2018-03-07T04:31:53.607Z,119.93
2018-03-07T04:35:57.777Z,119.00
2018-03-07T04:40:01.257Z,117.40
2018-03-07T04:44:05.608Z,118.30
2018-03-07T04:48:08.987Z,119.73
2018-03-07T04:52:12.381Z,120.23
2018-03-07T04:56:16.538Z,116.10
2018-03-07T05:00:19.901Z,118.97
2018-03-07T05:04:24.109Z,120.07
2018-03-07T05:08:27.506Z,114.87
2018-03-07T05:12:30.925Z,112.47
2018-03-07T05:16:34.273Z,113.53
2018-03-07T05:20:37.636Z,113.93
2018-03-07T05:24:41.002Z,117.87
2018-03-07T05:28:44.363Z,115.37
2018-03-07T05:32:47.845Z,113.60
2018-03-07T05:36:51.225Z,113.53
2018-03-07T05:40:54.606Z,114.07
2018-03-07T05:44:57.960Z,101.33
2018-03-07T05:49:01.316Z,105.20
2018-03-07T05:53:05.580Z,105.37
2018-03-07T05:57:08.933Z,102.53
2018-03-07T06:01:13.054Z,100.97
2018-03-07T06:05:17.188Z,101.40
2018-03-07T06:09:21.312Z,105.00
2018-03-07T06:13:24.687Z,93.63
2018-03-07T06:17:28.072Z,99.07
2018-03-07T06:21:31.431Z,97.70
2018-03-07T06:25:35.665Z,97.83
2018-03-07T06:29:39.034Z,94.17
2018-03-07T06:33:42.468Z,89.97
2018-03-07T06:37:46.604Z,97.53
2018-03-07T06:41:50.011Z,90.80
2018-03-07T06:45:53.374Z,89.73
2018-03-07T06:49:56.745Z,90.30
2018-03-07T06:54:00.103Z,86.77
2018-03-07T06:58:04.239Z,87.00
2018-03-07T07:02:08.534Z,83.63
2018-03-07T07:06:11.941Z,77.63
2018-03-07T07:10:15.261Z,81.07
2018-03-07T07:14:19.397Z,77.23
2018-03-07T07:18:23.758Z,76.67
2018-03-07T07:22:27.125Z,76.77
2018-03-07T07:26:31.268Z,74.00
2018-03-07T07:30:34.634Z,75.47
2018-03-07T07:34:38.144Z,73.13
2018-03-07T07:38:41.609Z,70.27
2018-03-07T07:42:44.978Z,69.90
2018-03-07T07:46:49.102Z,73.93
2018-03-07T07:50:53.246Z,75.60
2018-03-07T07:54:56.641Z,73.33
2018-03-07T07:59:00.779Z,71.43
2018-03-07T08:03:04.162Z,73.90
2018-03-07T08:07:08.290Z,73.40
2018-03-07T08:11:12.496Z,71.53
2018-03-07T08:15:15.870Z,73.03
2018-03-07T08:19:19.258Z,72.63
2018-03-07T08:23:22.605Z,70.00
2018-03-07T08:27:25.965Z,73.57
2018-03-07T08:31:29.349Z,69.53
2018-03-07T08:35:32.712Z,70.00
2018-03-07T08:39:36.087Z,70.47
2018-03-07T08:43:39.488Z,67.43
2018-03-07T08:47:42.894Z,69.97
2018-03-07T08:51:46.394Z,67.80
2018-03-07T08:55:49.834Z,63.63
2018-03-07T08:59:53.396Z,64.63
2018-03-07T09:03:57.515Z,60.47
2018-03-07T09:08:01.638Z,58.77
2018-03-07T09:12:05.782Z,59.33
2018-03-07T09:16:09.164Z,59.83
2018-03-07T09:20:13.281Z,61.37
2018-03-07T09:24:17.418Z,60.60
2018-03-07T09:28:21.561Z,58.60
2018-03-07T09:32:24.953Z,62.20
2018-03-07T09:36:28.314Z,59.80
2018-03-07T09:40:31.680Z,63.10
2018-03-07T09:44:35.060Z,62.90
2018-03-07T09:48:39.204Z,63.77
2018-03-07T09:52:42.615Z,60.53
2018-03-07T09:56:46.082Z,61.20
2018-03-07T10:00:49.449Z,59.00
2018-03-07T10:04:52.860Z,62.23
2018-03-07T10:08:56.320Z,59.83
2018-03-07T10:13:00.582Z,59.73
2018-03-07T10:17:03.938Z,57.50
2018-03-07T10:21:08.078Z,60.77
2018-03-07T10:25:11.458Z,57.87
2018-03-07T10:29:14.853Z,61.03
2018-03-07T10:33:23.879Z,56.97
2018-03-07T10:37:27.308Z,58.53
2018-03-07T10:41:30.675Z,60.80
2018-03-07T10:45:34.052Z,54.27
2018-03-07T10:49:37.396Z,57.20
2018-03-07T10:53:40.775Z,55.83
2018-03-07T10:57:44.128Z,53.60
2018-03-07T11:01:47.525Z,54.67
2018-03-07T11:05:50.923Z,51.67
2018-03-07T11:09:54.290Z,51.17
2018-03-07T11:13:57.649Z,49.10
2018-03-07T11:18:01.017Z,47.47
2018-03-07T11:22:04.403Z,47.83
2018-03-07T11:26:07.754Z,46.87
2018-03-07T11:30:11.113Z,47.27
2018-03-07T11:34:14.550Z,45.13
2018-03-07T11:38:18.022Z,46.67
2018-03-07T11:42:21.385Z,43.90
2018-03-07T11:46:24.770Z,45.67
2018-03-07T11:50:28.148Z,41.57
2018-03-07T11:54:31.509Z,41.70
2018-03-07T11:58:34.985Z,40.97
2018-03-07T12:02:38.406Z,41.47
2018-03-07T12:06:41.772Z,40.87
2018-03-07T12:10:45.176Z,42.70
2018-03-07T12:14:48.534Z,42.93
2018-03-07T12:18:51.995Z,41.20
2018-03-07T12:22:55.597Z,40.20
2018-03-07T12:26:58.961Z,40.93
2018-03-07T12:31:02.432Z,43.37
2018-03-07T12:35:05.795Z,42.33
2018-03-07T12:39:09.379Z,43.13
2018-03-07T12:43:13.248Z,41.37
2018-03-07T12:47:16.936Z,41.53
2018-03-07T12:51:20.428Z,42.67
2018-03-07T12:55:23.804Z,42.10
2018-03-07T12:59:27.519Z,41.57
2018-03-07T13:03:30.893Z,42.67
2018-03-07T13:07:34.262Z,43.07
2018-03-07T13:11:37.643Z,41.33
2018-03-07T13:15:41.016Z,42.43
2018-03-07T13:19:44.388Z,44.43
2018-03-07T13:23:47.740Z,42.47
2018-03-07T13:27:51.135Z,43.53
2018-03-07T13:31:54.485Z,41.17
2018-03-07T13:35:57.845Z,43.87
2018-03-07T13:40:01.229Z,44.20
2018-03-07T13:44:05.541Z,40.73
2018-03-07T13:48:09.357Z,44.73
2018-03-07T13:52:12.747Z,42.93
2018-03-07T13:56:16.101Z,41.17
2018-03-07T14:00:19.609Z,45.23
2018-03-07T14:04:23.035Z,44.00
2018-03-07T14:08:27.126Z,42.20
2018-03-07T14:12:31.302Z,45.87
2018-03-07T14:16:34.680Z,44.87
2018-03-07T14:20:38.094Z,44.23
2018-03-07T14:24:41.530Z,42.40
2018-03-07T14:28:44.890Z,44.80
2018-03-07T14:32:48.401Z,42.20
2018-03-07T14:36:51.814Z,44.67
2018-03-07T14:40:55.318Z,45.27
2018-03-07T14:44:58.742Z,45.30
2018-03-07T14:49:02.127Z,43.43
2018-03-07T14:53:05.522Z,47.10
2018-03-07T14:57:08.891Z,46.63
2018-03-07T15:01:12.285Z,45.87
2018-03-07T15:05:15.653Z,46.40
2018-03-07T15:09:19.045Z,46.40
2018-03-07T15:13:22.431Z,49.43
2018-03-07T15:17:25.807Z,47.27
2018-03-07T15:21:29.184Z,52.00
2018-03-07T15:25:32.585Z,48.77
2018-03-07T15:29:35.956Z,49.87
2018-03-07T15:33:39.347Z,49.20
2018-03-07T15:37:42.749Z,46.53
2018-03-07T15:41:46.145Z,50.70
2018-03-07T15:45:49.561Z,50.63
2018-03-07T15:49:52.929Z,51.23
2018-03-07T15:53:56.298Z,51.77
2018-03-07T15:58:00.430Z,51.47
2018-03-07T16:02:04.566Z,53.33
2018-03-07T16:06:07.946Z,53.20
2018-03-07T16:10:11.369Z,53.20
2018-03-07T16:14:15.494Z,53.47
2018-03-07T16:18:19.637Z,53.77
2018-03-07T16:22:23.059Z,52.93
2018-03-07T16:26:26.445Z,48.80
2018-03-07T16:30:29.810Z,49.63
2018-03-07T16:34:33.193Z,50.77
2018-03-07T16:38:36.566Z,48.53
2018-03-07T16:42:39.930Z,42.93
2018-03-07T16:46:43.307Z,44.20
2018-03-07T16:50:46.682Z,43.83
2018-03-07T16:54:50.059Z,45.63
2018-03-07T16:58:54.190Z,46.20
2018-03-07T17:02:58.372Z,46.17
2018-03-07T17:07:01.749Z,49.93
2018-03-07T17:11:05.119Z,45.50
2018-03-07T17:15:09.273Z,48.80
2018-03-07T17:19:12.637Z,45.03
2018-03-07T17:23:16.032Z,48.27
2018-03-07T17:27:19.396Z,47.87
2018-03-07T17:31:22.844Z,47.53
2018-03-07T17:35:26.230Z,52.40
2018-03-07T17:39:29.731Z,52.33
2018-03-07T17:43:33.104Z,50.63
2018-03-07T17:47:36.463Z,48.40
2018-03-07T17:51:39.939Z,51.97
2018-03-07T17:55:43.320Z,46.80
2018-03-07T17:59:46.699Z,47.77
2018-03-07T18:03:50.065Z,46.97
2018-03-07T18:07:53.550Z,48.23
2018-03-07T18:11:56.968Z,43.77
2018-03-07T18:16:00.353Z,44.50
2018-03-07T18:20:03.765Z,40.83
2018-03-07T18:24:07.149Z,42.23
2018-03-07T18:28:11.356Z,40.80
2018-03-07T18:32:14.919Z,40.50
2018-03-07T18:36:18.296Z,41.27
2018-03-07T18:40:22.452Z,42.80
2018-03-07T18:44:25.860Z,42.73
2018-03-07T18:48:29.297Z,43.00
2018-03-07T18:52:32.648Z,42.17
2018-03-07T18:56:37.651Z,42.63
2018-03-07T19:00:42.015Z,39.90
2018-03-07T19:04:46.848Z,41.50
2018-03-07T19:08:51.101Z,41.47
2018-03-07T19:12:55.179Z,39.97
2018-03-07T19:16:59.496Z,39.53
2018-03-07T19:21:02.906Z,37.70
2018-03-07T19:25:06.279Z,37.93
2018-03-07T19:29:09.680Z,40.53
2018-03-07T19:33:13.038Z,47.47
2018-03-07T19:37:16.396Z,99.53
2018-03-07T19:41:19.806Z,54.67
2018-03-07T19:45:23.224Z,49.37
2018-03-07T19:49:26.649Z,57.23
2018-03-07T19:53:31.543Z,48.97
2018-03-07T19:57:34.959Z,42.77
2018-03-07T20:01:38.378Z,40.97
2018-03-07T20:05:41.765Z,40.90
2018-03-07T20:09:45.134Z,49.00
2018-03-07T20:13:49.300Z,44.77
2018-03-07T20:17:52.712Z,43.40
2018-03-07T20:21:56.968Z,45.67
2018-03-07T20:26:00.540Z,37.50
2018-03-07T20:30:03.897Z,40.90
2018-03-07T20:34:07.290Z,38.17
2018-03-07T20:38:10.673Z,38.87
2018-03-07T20:42:14.069Z,39.37
2018-03-07T20:46:17.471Z,38.40
2018-03-07T20:50:20.865Z,37.87
2018-03-07T20:54:24.388Z,40.03
2018-03-07T20:58:27.780Z,38.37
2018-03-07T21:02:31.163Z,38.30
2018-03-07T21:06:35.290Z,37.67
2018-03-07T21:10:39.431Z,37.57
2018-03-07T21:14:43.051Z,37.03
2018-03-07T21:18:46.422Z,38.43
2018-03-07T21:22:50.575Z,38.07
2018-03-07T21:26:54.039Z,37.63
2018-03-07T21:30:57.515Z,39.37
2018-03-07T21:35:00.894Z,37.97
2018-03-07T21:39:04.249Z,38.20
2018-03-07T21:43:07.626Z,42.20
2018-03-07T21:47:11.142Z,41.63
2018-03-07T21:51:14.491Z,42.70
2018-03-07T21:55:17.926Z,40.00
2018-03-07T21:59:21.303Z,39.30
2018-03-07T22:03:25.557Z,37.63
2018-03-07T22:07:29.432Z,36.77
2018-03-07T22:11:32.795Z,36.87
2018-03-07T22:15:36.166Z,35.63
2018-03-07T22:19:40.298Z,36.10
2018-03-07T22:23:43.695Z,37.93
2018-03-07T22:27:47.825Z,38.33
2018-03-07T22:31:51.279Z,38.87
2018-03-07T22:35:54.678Z,38.80
2018-03-07T22:39:58.052Z,40.33
2018-03-07T22:44:01.429Z,37.40
2018-03-07T22:48:05.653Z,39.93
2018-03-07T22:52:09.013Z,39.00
2018-03-07T22:56:12.541Z,38.03
2018-03-07T23:00:26.249Z,39.70
2018-03-07T23:04:30.394Z,42.83
2018-03-07T23:08:33.779Z,38.90
2018-03-07T23:12:37.203Z,39.47
2018-03-07T23:16:40.595Z,37.57
2018-03-07T23:20:44.078Z,37.67
2018-03-07T23:24:48.206Z,37.63
2018-03-07T23:28:52.337Z,39.17
2018-03-07T23:32:56.466Z,38.93
2018-03-07T23:36:59.840Z,39.67
2018-03-07T23:41:04.002Z,40.80
2018-03-07T23:45:07.394Z,41.70
2018-03-07T23:49:11.517Z,39.27
2018-03-07T23:53:15.750Z,36.27
2018-03-07T23:57:19.125Z,37.03
